sensor_id;sensor_type;location;lat;lon;timestamp;P1;durP1;ratioP1;P2;durP2;ratioP2
9489;SDS011;4783;42.734;23.288;2023-06-24T09:22:03;13.60;;;11.15;;
9489;SDS011;4783;42.734;23.288;2023-06-24T09:24:32;12.68;;;10.55;;
9489;SDS011;4783;42.734;23.288;2023-06-24T09:26:57;13.77;;;10.50;;
9489;SDS011;4783;42.734;23.288;2023-06-24T09:29:26;14.43;;;10.45;;
9489;SDS011;4783;42.734;23.288;2023-06-24T09:31:54;13.77;;;10.88;;
9489;SDS011;4783;42.734;23.288;2023-06-24T09:34:22;13.23;;;9.27;;
9489;SDS011;4783;42.734;23.288;2023-06-24T09:36:54;15.38;;;10.05;;
9489;SDS011;4783;42.734;23.288;2023-06-24T09:39:20;14.07;;;9.48;;
9489;SDS011;4783;42.734;23.288;2023-06-24T09:41:50;13.75;;;10.32;;
9489;SDS011;4783;42.734;23.288;2023-06-24T09:44:15;10.85;;;8.60;;
9489;SDS011;4783;42.734;23.288;2023-06-24T09:46:41;11.90;;;9.60;;
9489;SDS011;4783;42.734;23.288;2023-06-24T09:49:07;11.05;;;9.48;;
9489;SDS011;4783;42.734;23.288;2023-06-24T09:51:40;10.70;;;9.60;;
9489;SDS011;4783;42.734;23.288;2023-06-24T09:54:05;17.90;;;9.98;;
9489;SDS011;4783;42.734;23.288;2023-06-24T09:56:31;10.65;;;9.55;;
9489;SDS011;4783;42.734;23.288;2023-06-24T09:58:56;12.48;;;9.50;;
9489;SDS011;4783;42.734;23.288;2023-06-24T10:01:22;13.95;;;9.65;;
9489;SDS011;4783;42.734;23.288;2023-06-24T10:03:47;14.75;;;9.35;;
9489;SDS011;4783;42.734;23.288;2023-06-24T10:06:13;12.82;;;9.32;;
9489;SDS011;4783;42.734;23.288;2023-06-24T10:08:38;21.13;;;9.57;;
9489;SDS011;4783;42.734;23.288;2023-06-24T10:11:03;14.25;;;11.82;;
9489;SDS011;4783;42.734;23.288;2023-06-24T10:13:29;13.53;;;9.30;;
9489;SDS011;4783;42.734;23.288;2023-06-24T10:15:55;12.77;;;9.38;;
9489;SDS011;4783;42.734;23.288;2023-06-24T10:18:37;13.13;;;8.85;;
9489;SDS011;4783;42.734;23.288;2023-06-24T10:21:05;12.65;;;8.50;;
9489;SDS011;4783;42.734;23.288;2023-06-24T10:25:57;10.73;;;9.35;;
9489;SDS011;4783;42.734;23.288;2023-06-24T10:28:22;9.52;;;8.63;;
9489;SDS011;4783;42.734;23.288;2023-06-24T10:30:54;11.47;;;8.17;;
9489;SDS011;4783;42.734;23.288;2023-06-24T10:33:19;10.32;;;8.88;;
9489;SDS011;4783;42.734;23.288;2023-06-24T10:35:44;11.57;;;9.05;;
9489;SDS011;4783;42.734;23.288;2023-06-24T10:38:09;9.70;;;8.73;;
9489;SDS011;4783;42.734;23.288;2023-06-24T10:43:01;10.43;;;8.95;;
9489;SDS011;4783;42.734;23.288;2023-06-24T10:45:26;9.07;;;8.18;;
9489;SDS011;4783;42.734;23.288;2023-06-24T10:47:52;12.50;;;8.03;;
9489;SDS011;4783;42.734;23.288;2023-06-24T10:50:21;10.32;;;8.90;;
9489;SDS011;4783;42.734;23.288;2023-06-24T10:52:49;12.05;;;8.60;;
9489;SDS011;4783;42.734;23.288;2023-06-24T10:55:18;13.05;;;8.32;;
9489;SDS011;4783;42.734;23.288;2023-06-24T10:57:44;11.43;;;8.18;;
9489;SDS011;4783;42.734;23.288;2023-06-24T11:00:10;13.18;;;7.68;;
9489;SDS011;4783;42.734;23.288;2023-06-24T11:02:35;14.38;;;7.60;;
9489;SDS011;4783;42.734;23.288;2023-06-24T11:05:02;9.73;;;8.25;;
9489;SDS011;4783;42.734;23.288;2023-06-24T11:07:28;10.77;;;7.13;;
9489;SDS011;4783;42.734;23.288;2023-06-24T11:09:56;10.77;;;7.65;;
9489;SDS011;4783;42.734;23.288;2023-06-24T11:12:25;10.82;;;7.47;;
9489;SDS011;4783;42.734;23.288;2023-06-24T11:14:51;10.50;;;6.82;;
9489;SDS011;4783;42.734;23.288;2023-06-24T11:17:16;9.68;;;7.65;;
9489;SDS011;4783;42.734;23.288;2023-06-24T11:19:41;9.67;;;6.73;;
9489;SDS011;4783;42.734;23.288;2023-06-24T11:22:08;8.52;;;7.03;;
9489;SDS011;4783;42.734;23.288;2023-06-24T11:24:34;9.80;;;7.03;;
9489;SDS011;4783;42.734;23.288;2023-06-24T11:26:59;10.93;;;7.38;;
9489;SDS011;4783;42.734;23.288;2023-06-24T11:29:29;11.63;;;6.97;;
9489;SDS011;4783;42.734;23.288;2023-06-24T11:31:55;7.68;;;6.97;;
9489;SDS011;4783;42.734;23.288;2023-06-24T11:34:20;12.15;;;6.63;;
9489;SDS011;4783;42.734;23.288;2023-06-24T11:36:46;9.25;;;6.45;;
9489;SDS011;4783;42.734;23.288;2023-06-24T11:39:22;7.72;;;6.05;;
9489;SDS011;4783;42.734;23.288;2023-06-24T11:41:48;7.53;;;6.72;;
9489;SDS011;4783;42.734;23.288;2023-06-24T11:44:14;7.95;;;6.40;;
9489;SDS011;4783;42.734;23.288;2023-06-24T11:46:39;9.00;;;6.28;;
9489;SDS011;4783;42.734;23.288;2023-06-24T11:51:30;10.43;;;5.67;;
9489;SDS011;4783;42.734;23.288;2023-06-24T11:53:58;10.35;;;5.85;;
9489;SDS011;4783;42.734;23.288;2023-06-24T11:56:33;9.93;;;6.03;;
9489;SDS011;4783;42.734;23.288;2023-06-24T11:58:59;11.30;;;6.38;;
9489;SDS011;4783;42.734;23.288;2023-06-24T12:01:29;10.50;;;7.03;;
9489;SDS011;4783;42.734;23.288;2023-06-24T12:03:55;13.73;;;7.03;;
9489;SDS011;4783;42.734;23.288;2023-06-24T12:06:20;7.53;;;6.03;;
9489;SDS011;4783;42.734;23.288;2023-06-24T12:08:46;9.50;;;6.70;;
9489;SDS011;4783;42.734;23.288;2023-06-24T12:11:11;7.30;;;6.20;;
9489;SDS011;4783;42.734;23.288;2023-06-24T12:13:36;11.63;;;8.60;;
9489;SDS011;4783;42.734;23.288;2023-06-24T12:16:01;10.02;;;6.15;;
9489;SDS011;4783;42.734;23.288;2023-06-24T12:18:26;13.37;;;6.80;;
9489;SDS011;4783;42.734;23.288;2023-06-24T12:20:52;12.52;;;6.38;;
9489;SDS011;4783;42.734;23.288;2023-06-24T12:23:17;7.03;;;5.87;;
9489;SDS011;4783;42.734;23.288;2023-06-24T12:25:42;7.97;;;6.83;;
9489;SDS011;4783;42.734;23.288;2023-06-24T12:28:08;10.82;;;6.38;;
9489;SDS011;4783;42.734;23.288;2023-06-24T12:30:33;10.00;;;7.17;;
9489;SDS011;4783;42.734;23.288;2023-06-24T12:32:58;7.67;;;6.70;;
9489;SDS011;4783;42.734;23.288;2023-06-24T12:35:23;11.77;;;6.20;;
9489;SDS011;4783;42.734;23.288;2023-06-24T12:37:50;11.32;;;6.70;;
9489;SDS011;4783;42.734;23.288;2023-06-24T12:40:15;7.88;;;6.30;;
